< < Back
Terminal Aerodrome Forecast


Current Version              Previous Versions:   1  2  3  4  5  6  7  8  9  

Terminal Aerodrome Forecast

683
FTUS44 KBMX 102346 RRA
TAFTCL
TAF
KTCL 102346Z 1100/1124 25006KT P6SM SKC=

Latest METAR

581
SAUS70 KWBC 111900 RRD
MTRTCL
METAR KTCL 111853Z 00000KT 10SM CLR 16/03 A3011 RMK AO2 SLP197
T01560028


USA.gov is the U.S. government's official web portal to all federal, state and local government web resources and services.